Ponsford, Minnesota
Current Conditions -  °F | °C
As of 9:53 AM on Wednesday 22 Oct 2014 (Local Time) from KPKD Reporting Station
Clear Clear  
Wind Chill: 41°   Ceiling: Unl
Heat Index: 48°   Visibility: 10mi
Dew Point: 38°   Wind: 22mph
Humidity: 68%   Direction: 160°SSE
Pressure: 30"   Gusts: 29mph
Location:  46.97°N, 95.38°W
Report Text: KPKD 221453Z AUTO 16019G25KT 10SM CLR 09/03 A3000 RMK AO2 PK WND 14027/1418 SLP167 T00890033 56008 TSNO
Loading
Personal Weather Stations






























Interactive Weather Map
Tropical Storm Tracking
New forecast layout! Learn more

10-Day Weather Forecast

Advertisements
Track Severe Weather on mobile